sensor_id;sensor_type;location;lat;lon;timestamp;P1;durP1;ratioP1;P2;durP2;ratioP2
16506;SDS011;8366;51.020;7.642;2022-11-20T00:00:08;19.50;;;10.53;;
16506;SDS011;8366;51.020;7.642;2022-11-20T00:02:35;14.00;;;8.37;;
16506;SDS011;8366;51.020;7.642;2022-11-20T00:05:02;13.50;;;8.40;;
16506;SDS011;8366;51.020;7.642;2022-11-20T00:07:29;16.40;;;8.73;;
16506;SDS011;8366;51.020;7.642;2022-11-20T00:09:55;12.57;;;8.23;;
16506;SDS011;8366;51.020;7.642;2022-11-20T00:12:22;12.43;;;7.93;;
16506;SDS011;8366;51.020;7.642;2022-11-20T00:14:48;13.43;;;8.73;;
16506;SDS011;8366;51.020;7.642;2022-11-20T00:17:16;12.67;;;8.47;;
16506;SDS011;8366;51.020;7.642;2022-11-20T00:19:43;13.60;;;8.67;;
16506;SDS011;8366;51.020;7.642;2022-11-20T00:22:09;14.00;;;8.57;;
16506;SDS011;8366;51.020;7.642;2022-11-20T00:24:36;12.23;;;7.73;;
16506;SDS011;8366;51.020;7.642;2022-11-20T00:27:02;12.63;;;7.80;;
16506;SDS011;8366;51.020;7.642;2022-11-20T00:29:29;12.60;;;7.87;;
16506;SDS011;8366;51.020;7.642;2022-11-20T00:31:55;12.53;;;7.97;;
16506;SDS011;8366;51.020;7.642;2022-11-20T00:34:23;11.07;;;7.27;;
16506;SDS011;8366;51.020;7.642;2022-11-20T00:36:50;13.10;;;8.03;;
16506;SDS011;8366;51.020;7.642;2022-11-20T00:39:16;11.70;;;7.43;;
16506;SDS011;8366;51.020;7.642;2022-11-20T00:41:42;11.63;;;7.37;;
16506;SDS011;8366;51.020;7.642;2022-11-20T00:44:09;10.83;;;7.43;;
16506;SDS011;8366;51.020;7.642;2022-11-20T00:46:35;13.00;;;8.27;;
16506;SDS011;8366;51.020;7.642;2022-11-20T00:49:02;15.30;;;8.30;;
16506;SDS011;8366;51.020;7.642;2022-11-20T00:51:30;12.47;;;8.20;;
16506;SDS011;8366;51.020;7.642;2022-11-20T00:53:57;14.70;;;8.53;;
16506;SDS011;8366;51.020;7.642;2022-11-20T00:56:25;13.27;;;7.57;;
16506;SDS011;8366;51.020;7.642;2022-11-20T00:58:51;12.40;;;8.17;;
16506;SDS011;8366;51.020;7.642;2022-11-20T01:01:19;13.47;;;8.30;;
16506;SDS011;8366;51.020;7.642;2022-11-20T01:03:46;12.07;;;7.83;;
16506;SDS011;8366;51.020;7.642;2022-11-20T01:06:14;13.33;;;7.60;;
16506;SDS011;8366;51.020;7.642;2022-11-20T01:08:44;14.10;;;8.63;;
16506;SDS011;8366;51.020;7.642;2022-11-20T01:11:12;14.37;;;7.93;;
16506;SDS011;8366;51.020;7.642;2022-11-20T01:13:40;13.77;;;8.37;;
16506;SDS011;8366;51.020;7.642;2022-11-20T01:16:08;13.23;;;8.50;;
16506;SDS011;8366;51.020;7.642;2022-11-20T01:18:37;13.50;;;8.37;;
16506;SDS011;8366;51.020;7.642;2022-11-20T01:21:06;12.00;;;7.60;;
16506;SDS011;8366;51.020;7.642;2022-11-20T01:23:33;13.10;;;7.90;;
16506;SDS011;8366;51.020;7.642;2022-11-20T01:26:02;14.57;;;8.70;;
16506;SDS011;8366;51.020;7.642;2022-11-20T01:28:30;13.40;;;8.80;;
16506;SDS011;8366;51.020;7.642;2022-11-20T01:30:57;15.07;;;8.70;;
16506;SDS011;8366;51.020;7.642;2022-11-20T01:33:24;14.90;;;8.63;;
16506;SDS011;8366;51.020;7.642;2022-11-20T01:35:51;13.73;;;8.40;;
16506;SDS011;8366;51.020;7.642;2022-11-20T01:38:18;14.50;;;8.33;;
16506;SDS011;8366;51.020;7.642;2022-11-20T01:40:45;16.13;;;9.27;;
16506;SDS011;8366;51.020;7.642;2022-11-20T01:43:14;14.43;;;8.73;;
16506;SDS011;8366;51.020;7.642;2022-11-20T01:48:46;13.47;;;8.50;;
16506;SDS011;8366;51.020;7.642;2022-11-20T01:51:17;13.93;;;9.10;;
16506;SDS011;8366;51.020;7.642;2022-11-20T01:53:47;13.90;;;8.77;;
16506;SDS011;8366;51.020;7.642;2022-11-20T01:56:14;13.20;;;8.80;;
16506;SDS011;8366;51.020;7.642;2022-11-20T01:58:43;14.07;;;9.13;;
16506;SDS011;8366;51.020;7.642;2022-11-20T02:01:12;13.93;;;8.23;;
16506;SDS011;8366;51.020;7.642;2022-11-20T02:03:39;13.50;;;8.10;;
16506;SDS011;8366;51.020;7.642;2022-11-20T02:06:08;12.77;;;8.37;;
16506;SDS011;8366;51.020;7.642;2022-11-20T02:08:38;13.03;;;8.53;;
16506;SDS011;8366;51.020;7.642;2022-11-20T02:11:04;13.93;;;8.30;;
16506;SDS011;8366;51.020;7.642;2022-11-20T02:13:31;11.57;;;7.60;;
16506;SDS011;8366;51.020;7.642;2022-11-20T02:16:14;15.20;;;8.60;;
16506;SDS011;8366;51.020;7.642;2022-11-20T02:18:42;14.03;;;8.53;;
16506;SDS011;8366;51.020;7.642;2022-11-20T02:21:12;14.47;;;8.27;;
16506;SDS011;8366;51.020;7.642;2022-11-20T02:23:53;15.33;;;9.07;;
16506;SDS011;8366;51.020;7.642;2022-11-20T02:26:23;14.60;;;8.50;;
16506;SDS011;8366;51.020;7.642;2022-11-20T02:28:50;13.67;;;8.13;;
16506;SDS011;8366;51.020;7.642;2022-11-20T02:31:16;12.07;;;8.13;;
16506;SDS011;8366;51.020;7.642;2022-11-20T02:33:43;14.80;;;8.67;;
16506;SDS011;8366;51.020;7.642;2022-11-20T02:36:10;15.53;;;8.87;;
16506;SDS011;8366;51.020;7.642;2022-11-20T02:38:38;14.37;;;9.03;;
16506;SDS011;8366;51.020;7.642;2022-11-20T02:41:06;14.57;;;8.90;;
16506;SDS011;8366;51.020;7.642;2022-11-20T02:43:32;12.57;;;8.53;;
16506;SDS011;8366;51.020;7.642;2022-11-20T02:45:59;13.60;;;8.57;;
16506;SDS011;8366;51.020;7.642;2022-11-20T02:48:25;12.67;;;7.93;;
16506;SDS011;8366;51.020;7.642;2022-11-20T02:50:52;14.00;;;8.87;;
16506;SDS011;8366;51.020;7.642;2022-11-20T02:53:18;13.70;;;8.20;;
16506;SDS011;8366;51.020;7.642;2022-11-20T02:55:45;14.57;;;8.37;;
16506;SDS011;8366;51.020;7.642;2022-11-20T02:58:13;13.63;;;8.73;;
16506;SDS011;8366;51.020;7.642;2022-11-20T03:00:39;13.70;;;8.37;;
16506;SDS011;8366;51.020;7.642;2022-11-20T03:03:06;12.67;;;8.53;;
16506;SDS011;8366;51.020;7.642;2022-11-20T03:05:32;13.40;;;8.20;;
16506;SDS011;8366;51.020;7.642;2022-11-20T03:07:59;14.63;;;8.80;;
16506;SDS011;8366;51.020;7.642;2022-11-20T03:10:25;13.90;;;8.13;;
16506;SDS011;8366;51.020;7.642;2022-11-20T03:12:52;15.07;;;9.00;;
16506;SDS011;8366;51.020;7.642;2022-11-20T03:15:21;14.23;;;8.37;;
16506;SDS011;8366;51.020;7.642;2022-11-20T03:17:48;15.47;;;9.07;;
16506;SDS011;8366;51.020;7.642;2022-11-20T03:20:14;15.33;;;9.07;;
16506;SDS011;8366;51.020;7.642;2022-11-20T03:22:41;16.60;;;9.07;;
16506;SDS011;8366;51.020;7.642;2022-11-20T03:25:08;14.97;;;8.37;;
16506;SDS011;8366;51.020;7.642;2022-11-20T03:27:34;14.80;;;8.33;;
16506;SDS011;8366;51.020;7.642;2022-11-20T03:30:01;15.57;;;9.13;;
16506;SDS011;8366;51.020;7.642;2022-11-20T03:32:29;15.10;;;8.70;;
16506;SDS011;8366;51.020;7.642;2022-11-20T03:34:55;15.57;;;9.47;;
16506;SDS011;8366;51.020;7.642;2022-11-20T03:37:22;15.20;;;9.03;;
16506;SDS011;8366;51.020;7.642;2022-11-20T03:39:48;15.50;;;9.60;;
16506;SDS011;8366;51.020;7.642;2022-11-20T03:42:15;14.33;;;9.23;;
16506;SDS011;8366;51.020;7.642;2022-11-20T03:44:55;14.67;;;9.27;;
16506;SDS011;8366;51.020;7.642;2022-11-20T03:47:22;15.87;;;9.27;;
16506;SDS011;8366;51.020;7.642;2022-11-20T03:49:49;15.00;;;8.93;;
16506;SDS011;8366;51.020;7.642;2022-11-20T03:52:16;15.60;;;9.23;;
16506;SDS011;8366;51.020;7.642;2022-11-20T03:54:42;13.73;;;8.37;;
16506;SDS011;8366;51.020;7.642;2022-11-20T03:57:09;16.17;;;9.40;;
16506;SDS011;8366;51.020;7.642;2022-11-20T03:59:35;17.33;;;9.27;;
16506;SDS011;8366;51.020;7.642;2022-11-20T04:02:02;16.60;;;9.13;;
16506;SDS011;8366;51.020;7.642;2022-11-20T04:04:28;14.17;;;8.50;;
16506;SDS011;8366;51.020;7.642;2022-11-20T04:06:56;16.27;;;9.10;;
16506;SDS011;8366;51.020;7.642;2022-11-20T04:09:22;16.97;;;9.57;;
16506;SDS011;8366;51.020;7.642;2022-11-20T04:11:49;15.33;;;9.27;;
16506;SDS011;8366;51.020;7.642;2022-11-20T04:14:16;16.40;;;9.40;;
16506;SDS011;8366;51.020;7.642;2022-11-20T04:16:42;17.87;;;9.47;;
16506;SDS011;8366;51.020;7.642;2022-11-20T04:19:10;17.17;;;9.83;;
16506;SDS011;8366;51.020;7.642;2022-11-20T04:21:38;16.20;;;10.10;;
16506;SDS011;8366;51.020;7.642;2022-11-20T04:24:07;15.83;;;9.50;;
16506;SDS011;8366;51.020;7.642;2022-11-20T04:26:35;16.67;;;10.00;;
16506;SDS011;8366;51.020;7.642;2022-11-20T04:29:02;16.17;;;9.57;;
16506;SDS011;8366;51.020;7.642;2022-11-20T04:31:30;15.90;;;8.97;;
16506;SDS011;8366;51.020;7.642;2022-11-20T04:33:59;17.83;;;9.80;;
16506;SDS011;8366;51.020;7.642;2022-11-20T04:36:26;18.07;;;10.60;;
16506;SDS011;8366;51.020;7.642;2022-11-20T04:38:54;17.80;;;9.90;;
16506;SDS011;8366;51.020;7.642;2022-11-20T04:41:23;15.10;;;9.63;;
16506;SDS011;8366;51.020;7.642;2022-11-20T04:43:51;16.17;;;9.67;;
16506;SDS011;8366;51.020;7.642;2022-11-20T04:46:19;17.23;;;9.93;;
16506;SDS011;8366;51.020;7.642;2022-11-20T04:48:46;16.60;;;9.80;;
16506;SDS011;8366;51.020;7.642;2022-11-20T04:51:13;18.37;;;10.43;;
16506;SDS011;8366;51.020;7.642;2022-11-20T04:53:40;19.07;;;9.87;;
16506;SDS011;8366;51.020;7.642;2022-11-20T04:56:09;19.43;;;9.90;;
16506;SDS011;8366;51.020;7.642;2022-11-20T04:58:38;19.30;;;9.83;;
16506;SDS011;8366;51.020;7.642;2022-11-20T05:01:06;16.97;;;9.70;;
16506;SDS011;8366;51.020;7.642;2022-11-20T05:03:33;18.07;;;9.77;;
16506;SDS011;8366;51.020;7.642;2022-11-20T05:06:00;16.40;;;9.93;;
16506;SDS011;8366;51.020;7.642;2022-11-20T05:08:27;17.20;;;10.33;;
16506;SDS011;8366;51.020;7.642;2022-11-20T05:10:54;16.07;;;9.53;;
16506;SDS011;8366;51.020;7.642;2022-11-20T05:13:26;15.80;;;9.60;;
16506;SDS011;8366;51.020;7.642;2022-11-20T05:15:54;16.73;;;10.03;;
16506;SDS011;8366;51.020;7.642;2022-11-20T05:18:21;16.20;;;10.03;;
16506;SDS011;8366;51.020;7.642;2022-11-20T05:20:53;16.97;;;10.40;;
16506;SDS011;8366;51.020;7.642;2022-11-20T05:23:20;16.07;;;9.67;;
16506;SDS011;8366;51.020;7.642;2022-11-20T05:25:47;17.27;;;10.57;;
16506;SDS011;8366;51.020;7.642;2022-11-20T05:28:13;16.63;;;9.83;;
16506;SDS011;8366;51.020;7.642;2022-11-20T05:30:40;19.87;;;10.30;;
16506;SDS011;8366;51.020;7.642;2022-11-20T05:33:08;15.33;;;9.70;;
16506;SDS011;8366;51.020;7.642;2022-11-20T05:35:35;18.90;;;10.23;;
16506;SDS011;8366;51.020;7.642;2022-11-20T05:38:01;18.73;;;9.80;;
16506;SDS011;8366;51.020;7.642;2022-11-20T05:40:28;18.47;;;10.10;;
16506;SDS011;8366;51.020;7.642;2022-11-20T05:42:54;17.47;;;10.00;;
16506;SDS011;8366;51.020;7.642;2022-11-20T05:45:20;17.80;;;10.40;;
16506;SDS011;8366;51.020;7.642;2022-11-20T05:47:47;16.33;;;9.77;;
16506;SDS011;8366;51.020;7.642;2022-11-20T05:50:15;19.47;;;10.20;;
16506;SDS011;8366;51.020;7.642;2022-11-20T05:52:42;16.17;;;9.33;;
16506;SDS011;8366;51.020;7.642;2022-11-20T05:55:08;19.37;;;10.00;;
16506;SDS011;8366;51.020;7.642;2022-11-20T05:57:35;16.90;;;10.30;;
16506;SDS011;8366;51.020;7.642;2022-11-20T06:00:02;17.50;;;9.90;;
16506;SDS011;8366;51.020;7.642;2022-11-20T06:02:29;15.50;;;9.70;;
16506;SDS011;8366;51.020;7.642;2022-11-20T06:04:56;20.27;;;10.27;;
16506;SDS011;8366;51.020;7.642;2022-11-20T06:07:23;19.43;;;10.30;;
16506;SDS011;8366;51.020;7.642;2022-11-20T06:09:50;19.63;;;10.67;;
16506;SDS011;8366;51.020;7.642;2022-11-20T06:12:16;20.47;;;10.83;;
16506;SDS011;8366;51.020;7.642;2022-11-20T06:14:43;16.93;;;9.63;;
16506;SDS011;8366;51.020;7.642;2022-11-20T06:17:12;17.90;;;10.53;;
16506;SDS011;8366;51.020;7.642;2022-11-20T06:19:39;17.60;;;10.30;;
16506;SDS011;8366;51.020;7.642;2022-11-20T06:22:05;17.53;;;10.20;;
16506;SDS011;8366;51.020;7.642;2022-11-20T06:24:33;17.50;;;10.07;;
16506;SDS011;8366;51.020;7.642;2022-11-20T06:27:00;17.53;;;10.37;;
16506;SDS011;8366;51.020;7.642;2022-11-20T06:29:26;15.20;;;9.27;;
16506;SDS011;8366;51.020;7.642;2022-11-20T06:31:54;16.83;;;9.70;;
16506;SDS011;8366;51.020;7.642;2022-11-20T06:34:20;18.20;;;10.30;;
16506;SDS011;8366;51.020;7.642;2022-11-20T06:36:46;18.07;;;10.07;;
16506;SDS011;8366;51.020;7.642;2022-11-20T06:39:13;16.10;;;9.60;;
16506;SDS011;8366;51.020;7.642;2022-11-20T06:41:41;15.40;;;8.93;;
16506;SDS011;8366;51.020;7.642;2022-11-20T06:44:07;16.37;;;9.30;;
16506;SDS011;8366;51.020;7.642;2022-11-20T06:46:34;16.87;;;9.63;;
16506;SDS011;8366;51.020;7.642;2022-11-20T06:49:00;17.33;;;10.60;;
16506;SDS011;8366;51.020;7.642;2022-11-20T06:51:27;18.40;;;10.00;;
16506;SDS011;8366;51.020;7.642;2022-11-20T06:53:53;16.27;;;9.37;;
16506;SDS011;8366;51.020;7.642;2022-11-20T06:56:20;19.93;;;10.07;;
16506;SDS011;8366;51.020;7.642;2022-11-20T06:58:47;16.03;;;9.60;;
16506;SDS011;8366;51.020;7.642;2022-11-20T07:01:14;18.17;;;10.33;;
16506;SDS011;8366;51.020;7.642;2022-11-20T07:03:41;17.47;;;9.63;;
16506;SDS011;8366;51.020;7.642;2022-11-20T07:06:08;16.70;;;10.03;;
16506;SDS011;8366;51.020;7.642;2022-11-20T07:08:35;16.87;;;9.97;;
16506;SDS011;8366;51.020;7.642;2022-11-20T07:11:11;18.00;;;10.57;;
16506;SDS011;8366;51.020;7.642;2022-11-20T07:13:38;17.90;;;10.33;;
16506;SDS011;8366;51.020;7.642;2022-11-20T07:16:07;17.93;;;9.97;;
16506;SDS011;8366;51.020;7.642;2022-11-20T07:18:34;16.97;;;10.00;;
16506;SDS011;8366;51.020;7.642;2022-11-20T07:21:01;15.40;;;9.57;;
16506;SDS011;8366;51.020;7.642;2022-11-20T07:23:27;15.27;;;9.40;;
16506;SDS011;8366;51.020;7.642;2022-11-20T07:25:54;20.27;;;8.87;;
16506;SDS011;8366;51.020;7.642;2022-11-20T07:28:20;17.80;;;10.20;;
16506;SDS011;8366;51.020;7.642;2022-11-20T07:30:49;17.87;;;10.40;;
16506;SDS011;8366;51.020;7.642;2022-11-20T07:33:17;19.87;;;10.03;;
16506;SDS011;8366;51.020;7.642;2022-11-20T07:35:44;18.13;;;10.17;;
16506;SDS011;8366;51.020;7.642;2022-11-20T07:38:11;20.47;;;10.53;;
16506;SDS011;8366;51.020;7.642;2022-11-20T07:40:37;17.10;;;9.97;;
16506;SDS011;8366;51.020;7.642;2022-11-20T07:43:04;18.00;;;10.87;;
16506;SDS011;8366;51.020;7.642;2022-11-20T07:45:30;16.70;;;10.03;;
16506;SDS011;8366;51.020;7.642;2022-11-20T07:47:57;19.03;;;10.50;;
16506;SDS011;8366;51.020;7.642;2022-11-20T07:50:25;18.80;;;10.00;;
16506;SDS011;8366;51.020;7.642;2022-11-20T07:52:51;17.20;;;10.10;;
16506;SDS011;8366;51.020;7.642;2022-11-20T07:55:18;17.60;;;10.17;;
16506;SDS011;8366;51.020;7.642;2022-11-20T07:57:45;16.47;;;9.87;;
16506;SDS011;8366;51.020;7.642;2022-11-20T08:00:12;17.53;;;9.67;;
16506;SDS011;8366;51.020;7.642;2022-11-20T08:02:40;16.00;;;9.20;;
16506;SDS011;8366;51.020;7.642;2022-11-20T08:05:07;16.63;;;9.60;;
16506;SDS011;8366;51.020;7.642;2022-11-20T08:07:37;16.97;;;10.23;;
16506;SDS011;8366;51.020;7.642;2022-11-20T08:10:04;16.97;;;10.27;;
16506;SDS011;8366;51.020;7.642;2022-11-20T08:12:32;16.50;;;9.97;;
16506;SDS011;8366;51.020;7.642;2022-11-20T08:15:16;18.07;;;10.20;;
16506;SDS011;8366;51.020;7.642;2022-11-20T08:17:43;16.87;;;10.47;;
16506;SDS011;8366;51.020;7.642;2022-11-20T08:20:09;16.97;;;10.20;;
16506;SDS011;8366;51.020;7.642;2022-11-20T08:22:37;17.97;;;10.07;;
16506;SDS011;8366;51.020;7.642;2022-11-20T08:25:04;18.10;;;10.90;;
16506;SDS011;8366;51.020;7.642;2022-11-20T08:27:31;17.40;;;10.47;;
16506;SDS011;8366;51.020;7.642;2022-11-20T08:29:57;20.03;;;10.93;;
16506;SDS011;8366;51.020;7.642;2022-11-20T08:32:24;16.97;;;9.70;;
16506;SDS011;8366;51.020;7.642;2022-11-20T08:34:50;17.00;;;10.37;;
16506;SDS011;8366;51.020;7.642;2022-11-20T08:37:17;18.90;;;10.73;;
16506;SDS011;8366;51.020;7.642;2022-11-20T08:39:45;19.70;;;11.17;;
16506;SDS011;8366;51.020;7.642;2022-11-20T08:42:12;18.87;;;10.47;;
16506;SDS011;8366;51.020;7.642;2022-11-20T08:44:38;19.53;;;10.50;;
16506;SDS011;8366;51.020;7.642;2022-11-20T08:47:05;21.60;;;11.63;;
16506;SDS011;8366;51.020;7.642;2022-11-20T08:49:31;18.47;;;10.50;;
16506;SDS011;8366;51.020;7.642;2022-11-20T08:51:58;18.27;;;10.70;;
16506;SDS011;8366;51.020;7.642;2022-11-20T08:54:24;20.83;;;11.33;;
16506;SDS011;8366;51.020;7.642;2022-11-20T08:56:52;20.70;;;11.77;;
16506;SDS011;8366;51.020;7.642;2022-11-20T08:59:19;20.80;;;11.50;;
16506;SDS011;8366;51.020;7.642;2022-11-20T09:01:45;22.00;;;11.67;;
16506;SDS011;8366;51.020;7.642;2022-11-20T09:04:12;21.30;;;11.87;;
16506;SDS011;8366;51.020;7.642;2022-11-20T09:06:39;21.93;;;12.67;;
16506;SDS011;8366;51.020;7.642;2022-11-20T09:09:06;22.27;;;12.57;;
16506;SDS011;8366;51.020;7.642;2022-11-20T09:11:32;21.23;;;11.80;;
16506;SDS011;8366;51.020;7.642;2022-11-20T09:14:01;20.33;;;12.33;;
16506;SDS011;8366;51.020;7.642;2022-11-20T09:16:29;20.67;;;11.80;;
16506;SDS011;8366;51.020;7.642;2022-11-20T09:18:56;22.60;;;12.87;;
16506;SDS011;8366;51.020;7.642;2022-11-20T09:21:22;20.83;;;11.73;;
16506;SDS011;8366;51.020;7.642;2022-11-20T09:23:49;21.83;;;12.00;;
16506;SDS011;8366;51.020;7.642;2022-11-20T09:26:16;22.33;;;11.67;;
16506;SDS011;8366;51.020;7.642;2022-11-20T09:28:42;20.93;;;11.90;;
16506;SDS011;8366;51.020;7.642;2022-11-20T09:31:21;21.13;;;11.63;;
16506;SDS011;8366;51.020;7.642;2022-11-20T09:33:49;20.00;;;11.67;;
16506;SDS011;8366;51.020;7.642;2022-11-20T09:36:16;21.30;;;11.23;;
16506;SDS011;8366;51.020;7.642;2022-11-20T09:38:43;22.77;;;12.50;;
16506;SDS011;8366;51.020;7.642;2022-11-20T09:41:23;19.80;;;11.60;;
16506;SDS011;8366;51.020;7.642;2022-11-20T09:44:04;19.00;;;11.20;;
16506;SDS011;8366;51.020;7.642;2022-11-20T09:46:37;17.97;;;10.53;;
16506;SDS011;8366;51.020;7.642;2022-11-20T09:49:19;19.23;;;11.33;;
16506;SDS011;8366;51.020;7.642;2022-11-20T09:51:52;18.53;;;10.67;;
16506;SDS011;8366;51.020;7.642;2022-11-20T09:54:26;18.17;;;10.97;;
16506;SDS011;8366;51.020;7.642;2022-11-20T09:56:55;20.43;;;11.50;;
16506;SDS011;8366;51.020;7.642;2022-11-20T09:59:26;18.60;;;10.77;;
16506;SDS011;8366;51.020;7.642;2022-11-20T10:02:14;22.93;;;13.13;;
16506;SDS011;8366;51.020;7.642;2022-11-20T10:04:43;18.80;;;11.00;;
16506;SDS011;8366;51.020;7.642;2022-11-20T10:07:12;19.87;;;12.30;;
16506;SDS011;8366;51.020;7.642;2022-11-20T10:09:43;20.37;;;11.77;;
16506;SDS011;8366;51.020;7.642;2022-11-20T10:12:15;19.90;;;11.53;;
16506;SDS011;8366;51.020;7.642;2022-11-20T10:14:51;21.80;;;11.90;;
16506;SDS011;8366;51.020;7.642;2022-11-20T10:17:39;18.20;;;11.37;;
16506;SDS011;8366;51.020;7.642;2022-11-20T10:20:17;21.43;;;13.30;;
16506;SDS011;8366;51.020;7.642;2022-11-20T10:22:56;20.90;;;12.00;;
16506;SDS011;8366;51.020;7.642;2022-11-20T10:25:33;18.43;;;10.73;;
16506;SDS011;8366;51.020;7.642;2022-11-20T10:28:20;17.37;;;10.67;;
16506;SDS011;8366;51.020;7.642;2022-11-20T10:30:52;18.80;;;10.10;;
16506;SDS011;8366;51.020;7.642;2022-11-20T10:33:24;17.13;;;9.80;;
16506;SDS011;8366;51.020;7.642;2022-11-20T10:35:53;16.40;;;9.37;;
16506;SDS011;8366;51.020;7.642;2022-11-20T10:38:23;16.37;;;9.90;;
16506;SDS011;8366;51.020;7.642;2022-11-20T10:40:52;16.50;;;10.03;;
16506;SDS011;8366;51.020;7.642;2022-11-20T10:43:40;16.27;;;9.37;;
16506;SDS011;8366;51.020;7.642;2022-11-20T10:46:08;14.37;;;8.97;;
16506;SDS011;8366;51.020;7.642;2022-11-20T10:48:41;15.57;;;9.20;;
16506;SDS011;8366;51.020;7.642;2022-11-20T10:51:12;15.87;;;9.20;;
16506;SDS011;8366;51.020;7.642;2022-11-20T10:54:01;14.73;;;8.20;;
16506;SDS011;8366;51.020;7.642;2022-11-20T10:56:35;14.43;;;8.73;;
16506;SDS011;8366;51.020;7.642;2022-11-20T10:59:21;14.07;;;8.97;;
16506;SDS011;8366;51.020;7.642;2022-11-20T11:01:54;17.07;;;10.10;;
16506;SDS011;8366;51.020;7.642;2022-11-20T11:04:28;15.03;;;9.50;;
16506;SDS011;8366;51.020;7.642;2022-11-20T11:07:03;16.93;;;10.07;;
16506;SDS011;8366;51.020;7.642;2022-11-20T11:09:33;17.33;;;9.97;;
16506;SDS011;8366;51.020;7.642;2022-11-20T11:12:05;17.23;;;10.33;;
16506;SDS011;8366;51.020;7.642;2022-11-20T11:14:41;15.43;;;10.10;;
16506;SDS011;8366;51.020;7.642;2022-11-20T11:17:17;17.00;;;10.67;;
16506;SDS011;8366;51.020;7.642;2022-11-20T11:19:57;19.13;;;11.03;;
16506;SDS011;8366;51.020;7.642;2022-11-20T11:22:28;17.37;;;10.37;;
16506;SDS011;8366;51.020;7.642;2022-11-20T11:24:56;15.20;;;9.57;;
16506;SDS011;8366;51.020;7.642;2022-11-20T11:27:22;17.43;;;10.53;;
16506;SDS011;8366;51.020;7.642;2022-11-20T11:29:49;16.40;;;9.97;;
16506;SDS011;8366;51.020;7.642;2022-11-20T11:32:17;16.60;;;9.80;;
16506;SDS011;8366;51.020;7.642;2022-11-20T11:34:57;14.17;;;9.13;;
16506;SDS011;8366;51.020;7.642;2022-11-20T11:37:26;15.57;;;9.60;;
16506;SDS011;8366;51.020;7.642;2022-11-20T11:39:58;16.23;;;9.57;;
16506;SDS011;8366;51.020;7.642;2022-11-20T11:42:25;17.07;;;10.10;;
16506;SDS011;8366;51.020;7.642;2022-11-20T11:44:51;16.10;;;9.30;;
16506;SDS011;8366;51.020;7.642;2022-11-20T11:47:33;17.07;;;9.97;;
16506;SDS011;8366;51.020;7.642;2022-11-20T11:50:13;16.43;;;9.67;;
16506;SDS011;8366;51.020;7.642;2022-11-20T11:52:42;15.97;;;9.67;;
16506;SDS011;8366;51.020;7.642;2022-11-20T11:55:12;19.53;;;11.33;;
16506;SDS011;8366;51.020;7.642;2022-11-20T11:57:42;16.50;;;10.53;;
16506;SDS011;8366;51.020;7.642;2022-11-20T12:00:13;16.00;;;10.10;;
16506;SDS011;8366;51.020;7.642;2022-11-20T12:02:44;17.20;;;10.30;;
16506;SDS011;8366;51.020;7.642;2022-11-20T12:05:21;18.47;;;10.90;;
16506;SDS011;8366;51.020;7.642;2022-11-20T12:07:50;18.47;;;10.63;;
16506;SDS011;8366;51.020;7.642;2022-11-20T12:10:21;17.57;;;10.03;;
16506;SDS011;8366;51.020;7.642;2022-11-20T12:12:53;16.83;;;10.57;;
16506;SDS011;8366;51.020;7.642;2022-11-20T12:15:24;18.50;;;10.73;;
16506;SDS011;8366;51.020;7.642;2022-11-20T12:17:53;17.93;;;10.77;;
16506;SDS011;8366;51.020;7.642;2022-11-20T12:20:24;17.60;;;11.17;;
16506;SDS011;8366;51.020;7.642;2022-11-20T12:22:54;17.37;;;10.43;;
16506;SDS011;8366;51.020;7.642;2022-11-20T12:25:24;19.37;;;10.93;;
16506;SDS011;8366;51.020;7.642;2022-11-20T12:30:49;17.17;;;10.83;;
16506;SDS011;8366;51.020;7.642;2022-11-20T12:36:30;18.43;;;11.03;;
16506;SDS011;8366;51.020;7.642;2022-11-20T12:39:10;17.03;;;10.97;;
16506;SDS011;8366;51.020;7.642;2022-11-20T12:41:46;18.70;;;11.27;;
16506;SDS011;8366;51.020;7.642;2022-11-20T12:44:39;19.40;;;10.67;;
16506;SDS011;8366;51.020;7.642;2022-11-20T12:47:32;19.27;;;10.83;;
16506;SDS011;8366;51.020;7.642;2022-11-20T12:50:05;19.93;;;11.37;;
16506;SDS011;8366;51.020;7.642;2022-11-20T12:52:42;21.30;;;12.00;;
16506;SDS011;8366;51.020;7.642;2022-11-20T12:55:14;24.63;;;13.40;;
16506;SDS011;8366;51.020;7.642;2022-11-20T12:57:48;18.20;;;11.67;;
16506;SDS011;8366;51.020;7.642;2022-11-20T13:00:17;18.13;;;10.80;;
16506;SDS011;8366;51.020;7.642;2022-11-20T13:02:55;20.03;;;11.37;;
16506;SDS011;8366;51.020;7.642;2022-11-20T13:05:31;22.47;;;11.50;;
16506;SDS011;8366;51.020;7.642;2022-11-20T13:08:02;20.00;;;11.17;;
16506;SDS011;8366;51.020;7.642;2022-11-20T13:10:31;18.83;;;11.27;;
16506;SDS011;8366;51.020;7.642;2022-11-20T13:13:00;24.90;;;13.97;;
16506;SDS011;8366;51.020;7.642;2022-11-20T13:15:36;19.43;;;11.67;;
16506;SDS011;8366;51.020;7.642;2022-11-20T13:18:11;18.13;;;11.10;;
16506;SDS011;8366;51.020;7.642;2022-11-20T13:20:40;19.03;;;11.63;;
16506;SDS011;8366;51.020;7.642;2022-11-20T13:23:09;20.43;;;11.40;;
16506;SDS011;8366;51.020;7.642;2022-11-20T13:25:37;19.53;;;12.17;;
16506;SDS011;8366;51.020;7.642;2022-11-20T13:28:05;19.73;;;11.47;;
16506;SDS011;8366;51.020;7.642;2022-11-20T13:30:53;19.83;;;11.40;;
16506;SDS011;8366;51.020;7.642;2022-11-20T13:33:22;21.67;;;11.50;;
16506;SDS011;8366;51.020;7.642;2022-11-20T13:35:54;18.27;;;11.40;;
16506;SDS011;8366;51.020;7.642;2022-11-20T13:38:24;20.33;;;11.90;;
16506;SDS011;8366;51.020;7.642;2022-11-20T13:40:52;19.13;;;11.20;;
16506;SDS011;8366;51.020;7.642;2022-11-20T13:43:21;18.13;;;10.90;;
16506;SDS011;8366;51.020;7.642;2022-11-20T13:45:59;19.47;;;12.07;;
16506;SDS011;8366;51.020;7.642;2022-11-20T13:48:29;18.00;;;11.23;;
16506;SDS011;8366;51.020;7.642;2022-11-20T13:51:12;23.97;;;12.70;;
16506;SDS011;8366;51.020;7.642;2022-11-20T13:54:02;20.20;;;12.30;;
16506;SDS011;8366;51.020;7.642;2022-11-20T13:56:43;20.23;;;12.23;;
16506;SDS011;8366;51.020;7.642;2022-11-20T13:59:18;20.23;;;11.80;;
16506;SDS011;8366;51.020;7.642;2022-11-20T14:01:54;20.23;;;12.17;;
16506;SDS011;8366;51.020;7.642;2022-11-20T14:04:23;19.23;;;12.70;;
16506;SDS011;8366;51.020;7.642;2022-11-20T14:06:52;19.83;;;11.60;;
16506;SDS011;8366;51.020;7.642;2022-11-20T14:09:33;21.50;;;13.30;;
16506;SDS011;8366;51.020;7.642;2022-11-20T14:12:01;19.80;;;11.43;;
16506;SDS011;8366;51.020;7.642;2022-11-20T14:14:28;20.53;;;11.33;;
16506;SDS011;8366;51.020;7.642;2022-11-20T14:17:07;18.70;;;11.17;;
16506;SDS011;8366;51.020;7.642;2022-11-20T14:19:34;18.80;;;11.40;;
16506;SDS011;8366;51.020;7.642;2022-11-20T14:22:09;19.63;;;11.67;;
16506;SDS011;8366;51.020;7.642;2022-11-20T14:24:42;18.73;;;11.20;;
16506;SDS011;8366;51.020;7.642;2022-11-20T14:27:12;19.60;;;11.93;;
16506;SDS011;8366;51.020;7.642;2022-11-20T14:29:40;20.40;;;11.47;;
16506;SDS011;8366;51.020;7.642;2022-11-20T14:32:08;21.20;;;11.90;;
16506;SDS011;8366;51.020;7.642;2022-11-20T14:34:37;20.93;;;12.20;;
16506;SDS011;8366;51.020;7.642;2022-11-20T14:37:05;21.07;;;12.17;;
16506;SDS011;8366;51.020;7.642;2022-11-20T14:39:36;22.33;;;12.23;;
16506;SDS011;8366;51.020;7.642;2022-11-20T14:42:15;20.27;;;12.17;;
16506;SDS011;8366;51.020;7.642;2022-11-20T14:44:42;19.67;;;11.73;;
16506;SDS011;8366;51.020;7.642;2022-11-20T14:47:10;21.53;;;13.33;;
16506;SDS011;8366;51.020;7.642;2022-11-20T14:49:38;21.33;;;12.37;;
16506;SDS011;8366;51.020;7.642;2022-11-20T14:52:10;22.20;;;12.77;;
16506;SDS011;8366;51.020;7.642;2022-11-20T14:54:43;23.93;;;14.10;;
16506;SDS011;8366;51.020;7.642;2022-11-20T14:57:20;21.53;;;12.43;;
16506;SDS011;8366;51.020;7.642;2022-11-20T14:59:51;22.13;;;12.80;;
16506;SDS011;8366;51.020;7.642;2022-11-20T15:02:17;26.20;;;13.00;;